createdAt,value
2018-01-13T00:00:22.521Z,96.60
2018-01-13T00:01:25.032Z,96.70
2018-01-13T00:02:27.736Z,96.60
2018-01-13T00:03:30.292Z,96.80
2018-01-13T00:04:32.922Z,96.90
2018-01-13T00:05:35.440Z,97.00
2018-01-13T00:06:37.959Z,97.00
2018-01-13T00:07:40.496Z,96.90
2018-01-13T00:08:43.805Z,96.80
2018-01-13T00:09:46.333Z,96.90
2018-01-13T00:10:48.853Z,96.80
2018-01-13T00:11:51.369Z,96.70
2018-01-13T00:12:53.884Z,96.80
2018-01-13T00:13:56.424Z,96.90
2018-01-13T00:14:59.700Z,96.80
2018-01-13T00:16:02.989Z,96.80
2018-01-13T00:17:06.269Z,96.70
2018-01-13T00:18:09.548Z,96.70
2018-01-13T00:19:12.858Z,96.70
2018-01-13T00:20:15.386Z,96.70
2018-01-13T00:21:17.904Z,96.60
2018-01-13T00:22:20.445Z,96.60
2018-01-13T00:23:22.972Z,96.50
2018-01-13T00:24:25.519Z,96.60
2018-01-13T00:25:28.032Z,96.50
2018-01-13T00:26:31.317Z,96.70
2018-01-13T00:27:34.604Z,96.80
2018-01-13T00:28:37.884Z,96.60
2018-01-13T00:29:41.212Z,96.60
2018-01-13T00:30:43.739Z,96.60
2018-01-13T00:31:47.031Z,96.60
2018-01-13T00:32:49.564Z,96.60
2018-01-13T00:33:52.082Z,96.60
2018-01-13T00:34:54.643Z,96.70
2018-01-13T00:35:57.156Z,96.80
2018-01-13T00:36:59.700Z,96.80
2018-01-13T00:38:02.213Z,97.00
2018-01-13T00:39:05.517Z,97.10
2018-01-13T00:40:08.041Z,97.10
2018-01-13T00:41:10.559Z,97.10
2018-01-13T00:42:13.106Z,97.30
2018-01-13T00:43:15.624Z,97.50
2018-01-13T00:44:18.140Z,97.20
2018-01-13T00:45:20.661Z,97.10
2018-01-13T00:46:23.184Z,97.10
2018-01-13T00:47:25.746Z,97.00
2018-01-13T00:48:28.283Z,97.10
2018-01-13T00:49:31.572Z,97.00
2018-01-13T00:50:35.068Z,96.90
2018-01-13T00:51:38.343Z,96.90
2018-01-13T00:52:41.682Z,96.80
2018-01-13T00:53:44.199Z,96.80
2018-01-13T00:54:46.713Z,96.90
2018-01-13T00:55:49.230Z,96.80
2018-01-13T00:56:52.516Z,96.80
2018-01-13T00:57:55.866Z,96.80
2018-01-13T00:58:58.411Z,96.80
2018-01-13T01:00:00.929Z,96.60
2018-01-13T01:01:04.216Z,96.50
2018-01-13T01:02:07.526Z,96.60
2018-01-13T01:03:10.049Z,96.60
2018-01-13T01:04:12.569Z,96.60
2018-01-13T01:05:15.085Z,96.80
2018-01-13T01:06:18.370Z,96.80
2018-01-13T01:07:21.680Z,96.80
2018-01-13T01:08:24.196Z,96.80
2018-01-13T01:09:26.713Z,96.80
2018-01-13T01:10:29.233Z,96.40
2018-01-13T01:11:31.751Z,96.50
2018-01-13T01:12:34.292Z,96.60
2018-01-13T01:13:37.576Z,96.50
2018-01-13T01:14:40.880Z,96.50
2018-01-13T01:15:43.416Z,96.50
2018-01-13T01:16:46.734Z,96.50
2018-01-13T01:17:49.245Z,96.50
2018-01-13T01:18:51.756Z,96.50
2018-01-13T01:19:54.305Z,96.70
2018-01-13T01:20:57.619Z,96.60
2018-01-13T01:22:00.143Z,96.60
2018-01-13T01:23:02.665Z,96.50
2018-01-13T01:24:05.185Z,96.50
2018-01-13T01:25:08.473Z,96.30
2018-01-13T01:26:11.790Z,96.50
2018-01-13T01:27:14.441Z,96.50
2018-01-13T01:28:16.961Z,96.50
2018-01-13T01:29:19.478Z,96.60
2018-01-13T01:30:22.000Z,96.40
2018-01-13T01:31:24.519Z,96.70
2018-01-13T01:32:27.067Z,96.50
2018-01-13T01:33:29.692Z,96.50
2018-01-13T01:34:33.100Z,96.70
2018-01-13T01:35:36.379Z,97.00
2018-01-13T01:36:39.697Z,97.20
2018-01-13T01:37:42.260Z,97.20
2018-01-13T01:38:44.780Z,97.10
2018-01-13T01:39:47.301Z,97.10
2018-01-13T01:40:49.819Z,97.00
2018-01-13T01:41:52.340Z,96.90
2018-01-13T01:42:54.898Z,97.00
2018-01-13T01:43:57.436Z,96.90
2018-01-13T01:45:00.716Z,97.10
2018-01-13T01:46:04.007Z,97.00
2018-01-13T01:47:07.285Z,96.80
2018-01-13T01:48:22.345Z,96.50
2018-01-13T01:49:25.716Z,96.40
2018-01-13T01:50:28.239Z,96.40
2018-01-13T01:51:30.788Z,96.40
2018-01-13T01:52:33.317Z,96.40
2018-01-13T01:53:35.829Z,96.40
2018-01-13T01:54:38.344Z,96.60
2018-01-13T01:55:40.870Z,96.40
2018-01-13T01:56:43.421Z,96.40
2018-01-13T01:57:45.940Z,96.60
2018-01-13T01:58:48.455Z,96.80
2018-01-13T01:59:50.978Z,96.80
2018-01-13T02:00:53.493Z,96.80
2018-01-13T02:01:56.028Z,96.50
2018-01-13T02:02:59.309Z,96.50
2018-01-13T02:04:02.600Z,96.50
2018-01-13T02:05:05.121Z,96.50
2018-01-13T02:06:07.636Z,96.50
2018-01-13T02:07:10.184Z,96.40
2018-01-13T02:08:13.513Z,96.40
2018-01-13T02:09:16.032Z,96.40
2018-01-13T02:10:19.332Z,96.50
2018-01-13T02:11:21.861Z,96.50
2018-01-13T02:12:24.381Z,96.30
2018-01-13T02:13:26.944Z,96.20
2018-01-13T02:14:29.458Z,96.20
2018-01-13T02:15:31.991Z,96.30
2018-01-13T02:16:34.510Z,96.30
2018-01-13T02:17:37.787Z,96.30
2018-01-13T02:18:40.439Z,96.60
2018-01-13T02:19:42.957Z,96.40
2018-01-13T02:20:45.472Z,96.40
2018-01-13T02:21:47.996Z,96.50
2018-01-13T02:22:50.550Z,96.50
2018-01-13T02:23:53.086Z,96.60
2018-01-13T02:24:56.368Z,96.80
2018-01-13T02:25:58.972Z,96.70
2018-01-13T02:27:01.494Z,97.00
2018-01-13T02:28:04.014Z,96.70
2018-01-13T02:29:06.569Z,96.70
2018-01-13T02:30:09.084Z,96.70
2018-01-13T02:31:11.624Z,96.70
2018-01-13T02:32:14.137Z,96.80
2018-01-13T02:33:17.464Z,96.90
2018-01-13T02:34:19.989Z,96.90
2018-01-13T02:35:23.282Z,96.90
2018-01-13T02:36:26.584Z,96.90
2018-01-13T02:37:29.298Z,96.90
2018-01-13T02:38:31.853Z,97.00
2018-01-13T02:39:34.405Z,97.00
2018-01-13T02:40:36.923Z,96.80
2018-01-13T02:41:40.214Z,96.80
2018-01-13T02:42:43.496Z,96.80
2018-01-13T02:43:46.781Z,96.70
2018-01-13T02:44:50.110Z,96.60
2018-01-13T02:45:52.625Z,96.60
2018-01-13T02:46:55.915Z,96.70
2018-01-13T02:47:59.220Z,96.60
2018-01-13T02:49:01.732Z,96.60
2018-01-13T02:50:04.253Z,96.70
2018-01-13T02:51:06.780Z,96.70
2018-01-13T02:52:09.330Z,96.80
2018-01-13T02:53:11.944Z,96.80
2018-01-13T02:54:14.441Z,96.90
2018-01-13T02:55:16.949Z,97.00
2018-01-13T02:56:19.463Z,96.90
2018-01-13T02:57:21.984Z,97.00
2018-01-13T02:58:25.302Z,97.00
2018-01-13T02:59:27.817Z,97.00
2018-01-13T03:00:30.339Z,97.20
2018-01-13T03:01:32.853Z,97.40
2018-01-13T03:02:36.421Z,97.40
2018-01-13T03:03:39.058Z,97.40
2018-01-13T03:04:41.593Z,97.30
2018-01-13T03:05:44.880Z,96.90
2018-01-13T03:06:48.162Z,96.80
2018-01-13T03:07:51.472Z,97.20
2018-01-13T03:08:54.029Z,96.90
2018-01-13T03:09:56.548Z,96.60
2018-01-13T03:10:59.078Z,96.60
2018-01-13T03:12:01.600Z,96.80
2018-01-13T03:13:04.154Z,97.00
2018-01-13T03:14:06.668Z,97.00
2018-01-13T03:15:09.216Z,97.00
2018-01-13T03:16:12.524Z,97.10
2018-01-13T03:17:15.049Z,97.10
2018-01-13T03:18:17.565Z,97.00
2018-01-13T03:19:20.088Z,96.90
2018-01-13T03:20:23.385Z,96.50
2018-01-13T03:21:25.935Z,96.50
2018-01-13T03:22:29.218Z,96.60
2018-01-13T03:23:32.517Z,96.70
2018-01-13T03:24:35.805Z,96.90
2018-01-13T03:25:38.329Z,96.90
2018-01-13T03:26:40.867Z,96.90
2018-01-13T03:27:43.423Z,97.00
2018-01-13T03:28:45.956Z,97.10
2018-01-13T03:29:49.236Z,97.10
2018-01-13T03:30:52.522Z,97.20
2018-01-13T03:31:55.805Z,97.20
2018-01-13T03:32:59.124Z,97.00
2018-01-13T03:34:01.636Z,97.00
2018-01-13T03:35:04.153Z,97.00
2018-01-13T03:37:14.485Z,97.00
2018-01-13T03:38:17.832Z,97.20
2018-01-13T03:39:20.343Z,97.20
2018-01-13T03:40:22.853Z,97.10
2018-01-13T03:41:25.368Z,97.00
2018-01-13T03:42:27.889Z,97.10
2018-01-13T03:43:30.470Z,97.00
2018-01-13T03:44:32.999Z,96.90
2018-01-13T03:45:35.515Z,96.80
2018-01-13T03:46:38.808Z,96.70
2018-01-13T03:47:42.088Z,96.70
2018-01-13T03:48:45.409Z,96.60
2018-01-13T03:49:47.948Z,96.60
2018-01-13T03:50:51.233Z,96.50
2018-01-13T03:51:54.525Z,96.50
2018-01-13T03:52:57.045Z,96.50
2018-01-13T03:53:59.602Z,96.50
2018-01-13T03:55:02.204Z,96.40
2018-01-13T03:56:05.479Z,96.40
2018-01-13T03:57:08.000Z,96.40
2018-01-13T03:58:10.512Z,96.20
2018-01-13T03:59:13.034Z,96.50
2018-01-13T04:00:15.581Z,96.80
2018-01-13T04:01:18.104Z,96.30
2018-01-13T04:02:20.716Z,96.40
2018-01-13T04:03:23.234Z,96.40
2018-01-13T04:04:25.754Z,96.30
2018-01-13T04:05:28.317Z,96.50
2018-01-13T04:06:30.832Z,96.50
2018-01-13T04:07:33.369Z,96.30
2018-01-13T04:08:35.885Z,96.40
2018-01-13T04:09:39.169Z,96.30
2018-01-13T04:10:42.540Z,96.30
2018-01-13T04:11:45.056Z,96.40
2018-01-13T04:12:47.576Z,96.30
2018-01-13T04:13:50.864Z,96.20
2018-01-13T04:14:54.150Z,96.10
2018-01-13T04:15:57.482Z,96.20
2018-01-13T04:17:00.000Z,96.10
2018-01-13T04:18:03.282Z,96.10
2018-01-13T04:19:06.557Z,96.20
2018-01-13T04:20:09.073Z,96.10
2018-01-13T04:21:11.627Z,96.50
2018-01-13T04:22:14.139Z,96.30
2018-01-13T04:23:16.764Z,96.20
2018-01-13T04:24:19.273Z,96.20
2018-01-13T04:25:21.837Z,96.40
2018-01-13T04:26:24.428Z,96.40
2018-01-13T04:27:27.704Z,96.30
2018-01-13T04:28:30.225Z,96.30
2018-01-13T04:29:32.741Z,96.20
2018-01-13T04:30:35.467Z,96.30
2018-01-13T04:31:37.994Z,96.40
2018-01-13T04:32:41.277Z,96.60
2018-01-13T04:33:44.564Z,96.60
2018-01-13T04:34:47.113Z,96.60
2018-01-13T04:35:50.418Z,96.70
2018-01-13T04:36:52.935Z,96.60
2018-01-13T04:37:55.476Z,96.30
2018-01-13T04:38:58.002Z,96.40
2018-01-13T04:40:01.285Z,96.20
2018-01-13T04:41:04.696Z,96.20
2018-01-13T04:42:07.218Z,96.20
2018-01-13T04:43:09.726Z,96.30
2018-01-13T04:44:12.249Z,96.10
2018-01-13T04:45:14.765Z,96.10
2018-01-13T04:46:17.301Z,96.10
2018-01-13T04:47:20.581Z,96.20
2018-01-13T04:48:23.862Z,96.30
2018-01-13T04:49:27.257Z,96.20
2018-01-13T04:50:30.548Z,96.50
2018-01-13T04:51:33.824Z,96.60
2018-01-13T04:52:37.105Z,96.70
2018-01-13T04:53:40.594Z,96.90
2018-01-13T04:54:43.933Z,96.80
2018-01-13T04:55:46.460Z,96.80
2018-01-13T04:56:48.981Z,96.90
2018-01-13T04:57:51.754Z,96.70
2018-01-13T04:58:54.277Z,96.60
2018-01-13T04:59:56.848Z,96.50
2018-01-13T05:00:59.366Z,96.50
2018-01-13T05:02:01.881Z,96.60
2018-01-13T05:03:04.392Z,96.30
2018-01-13T05:04:06.916Z,96.70
2018-01-13T05:05:09.496Z,96.90
2018-01-13T05:06:12.009Z,96.80
2018-01-13T05:07:15.284Z,96.70
2018-01-13T05:08:18.563Z,96.90
2018-01-13T05:09:21.080Z,96.60
2018-01-13T05:10:23.641Z,96.60
2018-01-13T05:11:26.165Z,96.60
2018-01-13T05:12:29.448Z,96.60
2018-01-13T05:13:31.965Z,96.60
2018-01-13T05:14:34.481Z,96.40
2018-01-13T05:15:37.813Z,96.40
2018-01-13T05:16:40.327Z,96.40
2018-01-13T05:17:43.624Z,96.40
2018-01-13T05:18:46.908Z,96.50
2018-01-13T05:19:50.183Z,96.60
2018-01-13T05:20:53.512Z,96.70
2018-01-13T05:21:56.037Z,96.60
2018-01-13T05:22:59.333Z,96.80
2018-01-13T05:24:02.625Z,96.70
2018-01-13T05:25:05.173Z,96.70
2018-01-13T05:26:07.720Z,96.80
2018-01-13T05:27:10.232Z,96.90
2018-01-13T05:28:12.753Z,96.70
2018-01-13T05:29:15.273Z,96.50
2018-01-13T05:30:17.794Z,96.30
2018-01-13T05:31:21.113Z,96.20
2018-01-13T05:32:23.629Z,96.10
2018-01-13T05:33:26.149Z,96.10
2018-01-13T05:34:28.700Z,96.00
2018-01-13T05:35:31.228Z,96.10
2018-01-13T05:36:33.771Z,96.10
2018-01-13T05:37:36.353Z,96.40
2018-01-13T05:38:38.887Z,96.50
2018-01-13T05:39:41.457Z,96.60
2018-01-13T05:40:43.976Z,96.60
2018-01-13T05:42:56.220Z,96.20
2018-01-13T05:43:58.741Z,96.00
2018-01-13T05:45:02.054Z,96.10
2018-01-13T05:46:04.593Z,96.10
2018-01-13T05:47:07.873Z,95.80
2018-01-13T05:48:10.389Z,95.80
2018-01-13T05:49:12.937Z,96.00
2018-01-13T05:50:15.448Z,96.00
2018-01-13T05:51:17.973Z,95.90
2018-01-13T05:52:20.526Z,96.10
2018-01-13T05:53:23.044Z,96.20
2018-01-13T05:54:25.704Z,96.30
2018-01-13T05:55:28.229Z,96.40
2018-01-13T05:56:30.740Z,96.30
2018-01-13T05:57:33.251Z,96.20
2018-01-13T05:58:36.542Z,96.50
2018-01-13T05:59:39.134Z,96.50
2018-01-13T06:00:41.652Z,96.50
2018-01-13T06:01:45.032Z,96.50
2018-01-13T06:02:47.558Z,96.50
2018-01-13T06:03:50.099Z,96.70
2018-01-13T06:04:52.645Z,96.50
2018-01-13T06:05:55.928Z,96.50
2018-01-13T06:06:59.215Z,96.60
2018-01-13T06:08:02.499Z,96.50
2018-01-13T06:09:05.812Z,96.40
2018-01-13T06:10:08.349Z,96.40
2018-01-13T06:11:11.636Z,96.40
2018-01-13T06:12:14.921Z,96.20
2018-01-13T06:13:18.196Z,96.10
2018-01-13T06:14:21.512Z,96.00
2018-01-13T06:15:24.056Z,96.00
2018-01-13T06:16:27.354Z,95.80
2018-01-13T06:17:29.922Z,95.80
2018-01-13T06:18:32.477Z,95.60
2018-01-13T06:19:34.990Z,95.90
2018-01-13T06:20:37.506Z,95.90
2018-01-13T06:21:40.200Z,95.90
2018-01-13T06:22:42.750Z,95.90
2018-01-13T06:23:45.280Z,95.80
2018-01-13T06:24:47.796Z,95.90
2018-01-13T06:25:50.309Z,96.10
2018-01-13T06:26:52.872Z,95.80
2018-01-13T06:27:55.486Z,95.90
2018-01-13T06:28:58.052Z,96.00
2018-01-13T06:30:00.581Z,96.10
2018-01-13T06:31:03.097Z,96.20
2018-01-13T06:32:05.604Z,96.30
2018-01-13T06:33:08.179Z,96.40
2018-01-13T06:34:10.711Z,96.50
2018-01-13T06:35:13.229Z,96.40
2018-01-13T06:36:16.536Z,96.50
2018-01-13T06:37:19.057Z,96.50
2018-01-13T06:38:21.630Z,96.20
2018-01-13T06:39:24.911Z,96.40
2018-01-13T06:40:27.436Z,96.20
2018-01-13T06:41:29.954Z,96.10
2018-01-13T06:42:33.241Z,96.30
2018-01-13T06:43:36.557Z,96.30
2018-01-13T06:44:39.100Z,96.30
2018-01-13T06:45:41.616Z,96.40
2018-01-13T06:46:44.132Z,96.40
2018-01-13T06:47:47.497Z,96.60
2018-01-13T06:48:50.783Z,97.10
2018-01-13T06:49:54.101Z,97.20
2018-01-13T06:50:56.619Z,97.10
2018-01-13T06:51:59.176Z,97.10
2018-01-13T06:53:01.710Z,97.10
2018-01-13T06:54:04.233Z,96.70
2018-01-13T06:55:07.563Z,96.80
2018-01-13T06:56:10.066Z,96.80
2018-01-13T06:57:12.631Z,96.90
2018-01-13T06:58:15.153Z,97.10
2018-01-13T06:59:17.671Z,97.00
2018-01-13T07:00:20.194Z,96.90
2018-01-13T07:01:22.715Z,96.90
2018-01-13T07:02:26.032Z,97.60
2018-01-13T07:03:28.551Z,97.60
2018-01-13T07:04:31.119Z,97.50
2018-01-13T07:05:33.673Z,97.60
2018-01-13T07:06:36.207Z,97.50
2018-01-13T07:07:38.726Z,97.20
2018-01-13T07:08:42.012Z,96.90
2018-01-13T07:09:45.305Z,96.90
2018-01-13T07:10:48.645Z,96.60
2018-01-13T07:11:51.156Z,96.60
2018-01-13T07:12:54.445Z,96.30
2018-01-13T07:13:56.977Z,96.30
2018-01-13T07:14:59.613Z,96.40
2018-01-13T07:16:02.129Z,96.50
2018-01-13T07:17:05.419Z,96.50
2018-01-13T07:18:08.698Z,96.20
2018-01-13T07:19:11.972Z,96.40
2018-01-13T07:20:14.535Z,96.30
2018-01-13T07:21:17.114Z,96.20
2018-01-13T07:22:20.405Z,96.50
2018-01-13T07:23:23.689Z,96.90
2018-01-13T07:24:26.976Z,97.00
2018-01-13T07:25:30.355Z,96.50
2018-01-13T07:26:32.951Z,96.50
2018-01-13T07:27:35.471Z,96.60
2018-01-13T07:28:37.989Z,96.40
2018-01-13T07:29:40.505Z,96.50
2018-01-13T07:30:43.058Z,96.30
2018-01-13T07:31:45.574Z,96.00
2018-01-13T07:32:48.089Z,95.90
2018-01-13T07:33:50.610Z,96.30
2018-01-13T07:34:53.178Z,96.40
2018-01-13T07:35:55.692Z,96.40
2018-01-13T07:36:58.214Z,96.10
2018-01-13T07:38:00.734Z,96.00
2018-01-13T07:39:03.283Z,95.80
2018-01-13T07:40:05.823Z,95.90
2018-01-13T07:41:08.348Z,95.90
2018-01-13T07:42:11.666Z,96.10
2018-01-13T07:43:14.189Z,96.00
2018-01-13T07:44:17.493Z,96.10
2018-01-13T07:45:20.010Z,96.10
2018-01-13T07:46:22.539Z,96.40
2018-01-13T07:47:25.061Z,96.50
2018-01-13T07:48:27.582Z,96.40
2018-01-13T07:49:30.139Z,96.30
2018-01-13T07:50:32.666Z,96.40
2018-01-13T07:51:35.954Z,96.60
2018-01-13T07:52:39.245Z,96.10
2018-01-13T07:53:42.565Z,95.60
2018-01-13T07:54:45.142Z,95.60
2018-01-13T07:55:47.663Z,95.70
2018-01-13T07:56:50.990Z,96.30
2018-01-13T07:57:53.514Z,96.30
2018-01-13T07:58:56.837Z,96.70
2018-01-13T07:59:59.367Z,96.70
2018-01-13T08:01:02.673Z,96.60
2018-01-13T08:02:05.253Z,96.60
2018-01-13T08:03:07.753Z,96.40
2018-01-13T08:04:10.310Z,96.30
2018-01-13T08:05:12.862Z,96.20
2018-01-13T08:06:15.386Z,96.00
2018-01-13T08:07:17.908Z,96.20
2018-01-13T08:08:20.436Z,96.20
2018-01-13T08:09:22.952Z,95.90
2018-01-13T08:10:25.518Z,95.80
2018-01-13T08:11:28.053Z,95.90
2018-01-13T08:12:30.600Z,96.30
2018-01-13T08:13:33.129Z,96.40
2018-01-13T08:14:36.433Z,96.20
2018-01-13T08:15:38.961Z,96.20
2018-01-13T08:16:41.521Z,96.10
2018-01-13T08:17:44.017Z,95.80
2018-01-13T08:18:47.340Z,96.10
2018-01-13T08:19:49.892Z,96.00
2018-01-13T08:20:52.423Z,96.00
2018-01-13T08:21:54.940Z,95.60
2018-01-13T08:22:57.575Z,95.20
2018-01-13T08:24:00.865Z,95.80
2018-01-13T08:25:03.421Z,96.10
2018-01-13T08:26:06.714Z,95.50
2018-01-13T08:27:09.244Z,95.50
2018-01-13T08:28:11.774Z,95.40
2018-01-13T08:29:14.293Z,95.40
2018-01-13T08:30:17.611Z,96.50
2018-01-13T08:31:20.131Z,96.20
2018-01-13T08:32:22.672Z,96.20
2018-01-13T08:33:25.229Z,96.40
2018-01-13T08:34:27.752Z,96.40
2018-01-13T08:35:31.044Z,95.80
2018-01-13T08:36:33.606Z,95.80
2018-01-13T08:37:36.889Z,96.00
2018-01-13T08:38:39.436Z,96.00
2018-01-13T08:39:41.952Z,95.70
2018-01-13T08:40:44.469Z,95.30
2018-01-13T08:41:47.027Z,95.00
2018-01-13T08:42:49.553Z,95.20
2018-01-13T08:43:52.266Z,95.30
2018-01-13T08:44:55.542Z,95.30
2018-01-13T08:45:58.073Z,95.30
2018-01-13T08:47:00.628Z,95.30
2018-01-13T08:48:03.155Z,95.40
2018-01-13T08:49:05.678Z,95.60
2018-01-13T08:50:08.211Z,95.50
2018-01-13T08:51:10.732Z,95.20
2018-01-13T08:52:13.274Z,95.00
2018-01-13T08:53:15.789Z,95.10
2018-01-13T08:54:19.088Z,95.50
2018-01-13T08:55:21.604Z,95.50
2018-01-13T08:56:24.189Z,95.40
2018-01-13T08:57:26.688Z,95.30
2018-01-13T08:58:29.271Z,95.00
2018-01-13T08:59:32.633Z,95.00
2018-01-13T09:00:35.957Z,95.20
2018-01-13T09:01:38.509Z,95.50
2018-01-13T09:02:41.962Z,95.00
2018-01-13T09:03:45.301Z,95.30
2018-01-13T09:04:47.846Z,95.30
2018-01-13T09:05:50.398Z,95.40
2018-01-13T09:06:52.943Z,95.40
2018-01-13T09:07:56.300Z,95.30
2018-01-13T09:08:58.889Z,95.30
2018-01-13T09:10:02.327Z,95.20
2018-01-13T09:11:04.874Z,95.20
2018-01-13T09:12:07.425Z,95.30
2018-01-13T09:13:10.786Z,95.10
2018-01-13T09:14:13.329Z,95.10
2018-01-13T09:15:15.881Z,95.00
2018-01-13T09:16:18.421Z,95.00
2018-01-13T09:17:20.964Z,94.80
2018-01-13T09:18:24.313Z,95.00
2018-01-13T09:19:26.871Z,95.00
2018-01-13T09:20:29.433Z,95.00
2018-01-13T09:21:31.972Z,94.90
2018-01-13T09:22:34.546Z,94.60
2018-01-13T09:23:37.130Z,94.80
2018-01-13T09:24:39.686Z,94.90
2018-01-13T09:25:42.230Z,94.90
2018-01-13T09:26:45.538Z,94.80
2018-01-13T09:27:48.088Z,94.80
2018-01-13T09:28:50.872Z,94.90
2018-01-13T09:29:53.413Z,95.00
2018-01-13T09:30:56.725Z,94.90
2018-01-13T09:31:59.269Z,94.90
2018-01-13T09:33:02.583Z,95.30
2018-01-13T09:34:05.203Z,95.30
2018-01-13T09:35:07.721Z,94.80
2018-01-13T09:36:10.261Z,94.90
2018-01-13T09:37:12.806Z,95.10
2018-01-13T09:38:16.119Z,94.70
2018-01-13T09:39:18.687Z,94.70
2018-01-13T09:40:21.234Z,94.50
2018-01-13T09:41:24.549Z,94.80
2018-01-13T09:42:27.105Z,94.80
2018-01-13T09:43:29.650Z,94.90
2018-01-13T09:44:32.220Z,94.90
2018-01-13T09:45:35.533Z,95.00
2018-01-13T09:46:38.081Z,95.10
2018-01-13T09:47:40.628Z,95.00
2018-01-13T09:48:43.941Z,95.00
2018-01-13T09:49:46.526Z,95.00
2018-01-13T09:50:49.106Z,95.30
2018-01-13T09:51:52.425Z,95.00
2018-01-13T09:52:55.899Z,95.20
2018-01-13T09:53:58.587Z,95.20
2018-01-13T09:55:01.980Z,94.80
2018-01-13T09:56:05.345Z,95.00
2018-01-13T09:57:07.894Z,94.90
2018-01-13T09:58:10.440Z,94.50
2018-01-13T09:59:12.988Z,94.80
2018-01-13T10:00:15.542Z,94.90
2018-01-13T10:01:18.120Z,94.90
2018-01-13T10:02:20.666Z,94.70
2018-01-13T10:03:23.982Z,94.10
2018-01-13T10:04:26.525Z,94.10
2018-01-13T10:05:29.097Z,94.20
2018-01-13T10:06:31.642Z,94.30
2018-01-13T10:07:34.956Z,94.70
2018-01-13T10:08:37.509Z,94.60
2018-01-13T10:09:40.057Z,94.70
2018-01-13T10:10:43.397Z,94.90
2018-01-13T10:11:45.941Z,94.90
2018-01-13T10:12:48.482Z,94.90
2018-01-13T10:13:51.864Z,94.80
2018-01-13T10:14:55.183Z,94.80
2018-01-13T10:15:57.773Z,94.80
2018-01-13T10:17:00.313Z,94.90
2018-01-13T10:18:02.853Z,94.90
2018-01-13T10:19:06.170Z,95.40
2018-01-13T10:20:08.708Z,95.10
2018-01-13T10:21:11.282Z,95.20
2018-01-13T10:22:13.876Z,95.20
2018-01-13T10:23:16.401Z,95.30
2018-01-13T10:24:19.709Z,95.20
2018-01-13T10:25:22.251Z,95.20
2018-01-13T10:26:25.665Z,95.50
2018-01-13T10:27:28.214Z,95.50
2018-01-13T10:28:30.765Z,95.40
2018-01-13T10:29:34.085Z,95.40
2018-01-13T10:30:36.763Z,95.40
2018-01-13T10:31:39.317Z,95.30
2018-01-13T10:32:42.625Z,95.50
2018-01-13T10:33:46.061Z,95.40
2018-01-13T10:34:49.380Z,95.40
2018-01-13T10:35:51.961Z,95.30
2018-01-13T10:36:54.510Z,95.30
2018-01-13T10:37:57.059Z,95.50
2018-01-13T10:38:59.693Z,95.40
2018-01-13T10:40:02.237Z,95.50
2018-01-13T10:41:04.801Z,95.50
2018-01-13T10:42:07.342Z,95.40
2018-01-13T10:43:09.889Z,95.50
2018-01-13T10:44:12.466Z,95.50
2018-01-13T10:45:15.038Z,95.50
2018-01-13T10:46:17.585Z,95.50
2018-01-13T10:47:20.895Z,95.40
2018-01-13T10:48:23.561Z,95.40
2018-01-13T10:49:26.113Z,95.20
2018-01-13T10:50:28.665Z,95.30
2018-01-13T10:51:31.989Z,95.40
2018-01-13T10:52:34.562Z,95.40
2018-01-13T10:53:37.149Z,95.30
2018-01-13T10:54:39.693Z,95.10
2018-01-13T10:55:42.233Z,95.20
2018-01-13T10:56:44.789Z,95.10
2018-01-13T10:57:48.521Z,94.60
2018-01-13T10:58:51.098Z,94.60
2018-01-13T10:59:53.806Z,94.70
2018-01-13T11:00:57.168Z,94.30
2018-01-13T11:01:59.712Z,94.30
2018-01-13T11:03:02.258Z,94.40
2018-01-13T11:04:04.807Z,94.60
2018-01-13T11:05:07.357Z,94.40
2018-01-13T11:06:10.698Z,94.30
2018-01-13T11:07:13.242Z,94.60
2018-01-13T11:08:15.789Z,94.30
2018-01-13T11:09:18.364Z,94.30
2018-01-13T11:10:20.910Z,94.40
2018-01-13T11:11:24.225Z,94.60
2018-01-13T11:12:26.905Z,94.60
2018-01-13T11:13:29.449Z,94.10
2018-01-13T11:14:31.994Z,94.00
2018-01-13T11:15:35.301Z,94.10
2018-01-13T11:16:37.845Z,94.10
2018-01-13T11:17:41.177Z,93.70
2018-01-13T11:18:43.765Z,93.70
2018-01-13T11:19:46.306Z,93.90
2018-01-13T11:20:48.854Z,93.70
2018-01-13T11:21:51.415Z,93.90
2018-01-13T11:22:53.961Z,93.90
2018-01-13T11:23:57.302Z,93.80
2018-01-13T11:24:59.853Z,93.80
2018-01-13T11:26:02.394Z,93.90
2018-01-13T11:27:05.701Z,94.40
2018-01-13T11:28:08.245Z,94.40
2018-01-13T11:29:11.594Z,94.70
2018-01-13T11:30:14.949Z,94.70
2018-01-13T11:31:17.528Z,94.70
2018-01-13T11:32:20.069Z,94.80
2018-01-13T11:33:22.618Z,95.00
2018-01-13T11:34:25.181Z,95.00
2018-01-13T11:35:27.734Z,94.40
2018-01-13T11:36:31.073Z,94.70
2018-01-13T11:37:33.617Z,94.70
2018-01-13T11:38:36.161Z,94.80
2018-01-13T11:39:39.469Z,94.70
2018-01-13T11:40:42.057Z,94.70
2018-01-13T11:41:44.602Z,94.80
2018-01-13T11:42:47.146Z,94.90
2018-01-13T11:43:50.454Z,94.90
2018-01-13T11:44:52.997Z,94.90
2018-01-13T11:45:56.338Z,94.50
2018-01-13T11:46:58.975Z,94.50
2018-01-13T11:48:01.531Z,94.80
2018-01-13T11:49:04.073Z,94.50
2018-01-13T11:50:07.421Z,94.90
2018-01-13T11:51:09.961Z,94.90
2018-01-13T11:52:12.506Z,94.60
2018-01-13T11:53:15.056Z,94.70
2018-01-13T11:54:18.417Z,94.90
2018-01-13T11:55:20.969Z,94.90
2018-01-13T11:56:23.537Z,95.00
2018-01-13T11:58:35.093Z,94.80
2018-01-13T11:59:37.639Z,94.90
2018-01-13T12:00:40.945Z,94.80
2018-01-13T12:01:43.493Z,94.80
2018-01-13T12:02:46.039Z,94.80
2018-01-13T12:03:49.379Z,95.00
2018-01-13T12:04:51.926Z,95.00
2018-01-13T12:05:54.497Z,95.00
2018-01-13T12:06:57.065Z,94.80
2018-01-13T12:07:59.614Z,94.50
2018-01-13T12:09:02.156Z,94.40
2018-01-13T12:10:05.481Z,93.90
2018-01-13T12:11:08.083Z,93.90
2018-01-13T12:12:10.633Z,93.90
2018-01-13T12:13:13.181Z,94.00
2018-01-13T12:14:15.721Z,94.10
2018-01-13T12:15:18.277Z,94.10
2018-01-13T12:16:20.854Z,94.00
2018-01-13T12:17:23.405Z,94.10
2018-01-13T12:18:26.713Z,94.50
2018-01-13T12:19:29.261Z,94.30
2018-01-13T12:20:31.854Z,94.40
2018-01-13T12:21:34.397Z,94.20
2018-01-13T12:22:37.707Z,94.00
2018-01-13T12:23:40.261Z,94.00
2018-01-13T12:24:42.813Z,94.10
2018-01-13T12:25:45.402Z,94.20
2018-01-13T12:26:47.947Z,94.50
2018-01-13T12:27:50.533Z,94.40
2018-01-13T12:28:53.080Z,94.50
2018-01-13T12:29:55.630Z,94.30
2018-01-13T12:30:58.174Z,94.40
2018-01-13T12:32:00.722Z,93.90
2018-01-13T12:33:03.397Z,94.10
2018-01-13T12:34:05.963Z,93.90
2018-01-13T12:35:08.518Z,94.10
2018-01-13T12:36:11.061Z,93.90
2018-01-13T12:37:13.610Z,94.00
2018-01-13T12:38:16.953Z,94.10
2018-01-13T12:39:19.501Z,94.10
2018-01-13T12:40:22.043Z,93.60
2018-01-13T12:41:25.356Z,93.90
2018-01-13T12:42:27.962Z,93.90
2018-01-13T12:43:30.582Z,94.10
2018-01-13T12:44:33.150Z,93.70
2018-01-13T12:45:35.695Z,93.70
2018-01-13T12:46:39.002Z,93.70
2018-01-13T12:47:41.546Z,93.70
2018-01-13T12:48:44.855Z,93.90
2018-01-13T12:49:47.430Z,93.90
2018-01-13T12:50:49.974Z,93.90
2018-01-13T12:51:52.517Z,93.90
2018-01-13T12:52:55.831Z,94.10
2018-01-13T12:53:58.781Z,94.10
2018-01-13T12:55:02.123Z,93.80
2018-01-13T12:56:04.762Z,93.80
2018-01-13T12:57:07.305Z,93.60
2018-01-13T12:58:10.621Z,93.70
2018-01-13T12:59:13.193Z,93.70
2018-01-13T13:00:15.740Z,93.80
2018-01-13T13:01:18.285Z,93.80
2018-01-13T13:02:21.594Z,93.90
2018-01-13T13:03:24.142Z,93.90
2018-01-13T13:04:27.506Z,93.60
2018-01-13T13:05:30.056Z,93.60
2018-01-13T13:06:32.602Z,93.80
2018-01-13T13:07:35.150Z,93.60
2018-01-13T13:08:37.703Z,93.80
2018-01-13T13:09:40.282Z,93.50
2018-01-13T13:10:42.825Z,93.40
2018-01-13T13:11:45.393Z,93.40
2018-01-13T13:12:48.713Z,93.60
2018-01-13T13:13:51.289Z,93.60
2018-01-13T13:14:53.836Z,93.80
2018-01-13T13:15:56.407Z,93.90
2018-01-13T13:16:58.949Z,93.40
2018-01-13T13:18:01.723Z,93.10
2018-01-13T13:19:04.341Z,93.10
2018-01-13T13:20:07.654Z,93.30
2018-01-13T13:21:10.197Z,93.20
2018-01-13T13:22:12.745Z,92.90
2018-01-13T13:23:15.298Z,92.90
2018-01-13T13:24:17.881Z,93.20
2018-01-13T13:25:20.433Z,93.10
2018-01-13T13:26:23.010Z,92.80
2018-01-13T13:27:25.553Z,92.80
2018-01-13T13:28:28.098Z,92.80
2018-01-13T13:29:31.446Z,93.10
2018-01-13T13:30:34.758Z,92.80
2018-01-13T13:31:38.101Z,92.60